createdAt,value
2022-12-01T00:00:49.378Z,2.90
2022-12-01T00:06:00.573Z,2.80
2022-12-01T00:11:11.515Z,2.80
2022-12-01T00:16:15.941Z,2.80
2022-12-01T00:21:20.558Z,2.70
2022-12-01T00:26:26.262Z,2.70
2022-12-01T00:31:40.483Z,2.70
2022-12-01T00:36:45.140Z,2.70
2022-12-01T00:41:49.855Z,2.70
2022-12-01T00:47:05.697Z,2.70
2022-12-01T00:52:09.400Z,2.70
2022-12-01T00:57:14.791Z,2.70
2022-12-01T01:02:24.077Z,2.60
2022-12-01T01:07:27.699Z,2.60
2022-12-01T01:12:32.716Z,2.60
2022-12-01T01:17:36.043Z,2.60
2022-12-01T01:22:46.375Z,2.70
2022-12-01T01:27:58.013Z,2.60
2022-12-01T01:33:02.441Z,2.60
2022-12-01T01:38:14.990Z,2.70
2022-12-01T01:43:35.563Z,2.60
2022-12-01T01:48:40.789Z,2.70
2022-12-01T01:53:48.319Z,2.70
2022-12-01T01:58:54.653Z,2.70
2022-12-01T02:03:59.881Z,2.70
2022-12-01T02:09:03.288Z,2.70
2022-12-01T02:14:38.582Z,2.60
2022-12-01T02:20:00.819Z,2.60
2022-12-01T02:25:38.582Z,2.60
2022-12-01T02:31:11.105Z,2.60
2022-12-01T02:36:22.359Z,2.60
2022-12-01T02:41:48.523Z,2.60
2022-12-01T02:47:00.343Z,2.50
2022-12-01T02:52:12.848Z,2.60
2022-12-01T02:57:33.332Z,2.60
2022-12-01T03:02:49.969Z,2.50
2022-12-01T03:08:14.624Z,2.50
2022-12-01T03:13:39.886Z,2.50
2022-12-01T03:18:51.189Z,2.50
2022-12-01T03:24:05.437Z,2.50
2022-12-01T03:29:12.450Z,2.50
2022-12-01T03:34:24.285Z,2.50
2022-12-01T03:39:33.400Z,2.50
2022-12-01T03:51:12.540Z,2.40
2022-12-01T03:56:26.263Z,2.40
2022-12-01T04:01:35.644Z,2.30
2022-12-01T04:06:41.688Z,2.30
2022-12-01T04:12:33.051Z,2.40
2022-12-01T04:17:49.513Z,2.30
2022-12-01T04:22:54.456Z,2.20
2022-12-01T04:28:16.027Z,2.20
2022-12-01T04:33:46.920Z,2.20
2022-12-01T04:38:51.825Z,2.20
2022-12-01T04:43:55.878Z,2.10
2022-12-01T04:48:59.382Z,2.10
2022-12-01T04:54:06.090Z,2.10
2022-12-01T04:59:11.941Z,2.10
2022-12-01T05:04:16.589Z,2.00
2022-12-01T05:09:23.457Z,2.10
2022-12-01T05:14:26.867Z,2.00
2022-12-01T05:19:49.066Z,2.00
2022-12-01T05:24:54.110Z,2.00
2022-12-01T05:30:11.809Z,2.10
2022-12-01T05:35:37.291Z,2.00
2022-12-01T05:40:43.222Z,2.00
2022-12-01T05:45:50.168Z,2.00
2022-12-01T05:50:53.936Z,2.00
2022-12-01T05:55:58.677Z,2.00
2022-12-01T06:01:11.323Z,2.00
2022-12-01T06:06:33.663Z,2.10
2022-12-01T06:11:46.511Z,2.10
2022-12-01T06:16:52.591Z,2.00
2022-12-01T06:21:56.230Z,2.00
2022-12-01T06:27:13.527Z,2.00
2022-12-01T06:32:22.942Z,2.00
2022-12-01T06:37:26.306Z,2.00
2022-12-01T06:42:32.690Z,2.00
2022-12-01T06:47:36.255Z,2.00
2022-12-01T06:52:39.673Z,2.00
2022-12-01T06:57:45.409Z,2.00
2022-12-01T07:02:50.046Z,2.10
2022-12-01T07:07:59.183Z,2.00
2022-12-01T07:13:05.350Z,2.00
2022-12-01T07:18:10.109Z,2.00
2022-12-01T07:23:13.618Z,2.00
2022-12-01T07:28:18.620Z,2.00
2022-12-01T07:33:22.170Z,2.00
2022-12-01T07:38:25.597Z,2.00
2022-12-01T07:43:31.446Z,2.00
2022-12-01T07:48:36.654Z,2.00
2022-12-01T07:53:40.615Z,2.10
2022-12-01T07:58:49.002Z,2.00
2022-12-01T08:03:54.297Z,2.00
2022-12-01T08:08:57.936Z,2.00
2022-12-01T08:14:04.094Z,2.00
2022-12-01T08:19:07.442Z,2.10
2022-12-01T08:24:12.835Z,2.00
2022-12-01T08:29:20.550Z,2.10
2022-12-01T08:34:24.084Z,2.10
2022-12-01T08:39:27.475Z,2.10
2022-12-01T08:44:32.403Z,2.10
2022-12-01T08:49:35.824Z,2.20
2022-12-01T08:54:40.224Z,2.20
2022-12-01T08:59:45.376Z,2.20
2022-12-01T09:04:49.779Z,2.30
2022-12-01T09:09:55.076Z,2.40
2022-12-01T09:15:00.767Z,2.40
2022-12-01T09:20:05.096Z,2.60
2022-12-01T09:25:14.756Z,2.60
2022-12-01T09:30:19.883Z,2.60
2022-12-01T09:35:23.718Z,2.60
2022-12-01T09:40:35.402Z,2.50
2022-12-01T09:45:48.294Z,2.60
2022-12-01T09:50:55.758Z,2.70
2022-12-01T09:56:07.161Z,2.70
2022-12-01T10:01:24.463Z,2.70
2022-12-01T10:06:39.595Z,2.70
2022-12-01T10:11:47.272Z,2.50
2022-12-01T10:17:01.291Z,2.60
2022-12-01T10:22:23.842Z,2.40
2022-12-01T10:27:44.796Z,2.60
2022-12-01T10:32:54.377Z,2.60
2022-12-01T10:38:01.322Z,2.70
2022-12-01T10:43:04.812Z,2.80
2022-12-01T10:48:27.372Z,2.80
2022-12-01T10:53:32.227Z,2.80
2022-12-01T10:58:43.796Z,2.80
2022-12-01T11:04:08.607Z,2.80
2022-12-01T11:09:25.960Z,2.80
2022-12-01T11:14:42.288Z,2.70
2022-12-01T11:19:47.501Z,2.60
2022-12-01T11:25:05.302Z,2.70
2022-12-01T11:30:21.849Z,2.80
2022-12-01T11:35:34.603Z,2.70
2022-12-01T11:40:52.452Z,2.80
2022-12-01T11:46:00.155Z,2.90
2022-12-01T11:51:11.609Z,3.00
2022-12-01T11:56:23.547Z,2.90
2022-12-01T12:01:41.812Z,3.00
2022-12-01T12:06:56.393Z,2.90
2022-12-01T12:12:08.363Z,3.00
2022-12-01T12:17:28.090Z,3.10
2022-12-01T12:22:55.058Z,3.10
2022-12-01T12:28:19.621Z,3.00
2022-12-01T12:34:08.946Z,2.90
2022-12-01T12:39:30.490Z,3.00
2022-12-01T12:44:48.231Z,3.00
2022-12-01T12:50:00.869Z,2.90
2022-12-01T12:55:20.108Z,3.00
2022-12-01T13:00:45.374Z,3.00
2022-12-01T13:05:51.943Z,3.10
2022-12-01T13:11:11.888Z,3.10
2022-12-01T13:16:20.003Z,3.00
2022-12-01T13:21:24.656Z,3.00
2022-12-01T13:26:39.125Z,3.00
2022-12-01T13:31:45.408Z,2.90
2022-12-01T13:36:56.883Z,3.00
2022-12-01T13:42:08.362Z,3.00
2022-12-01T13:47:39.821Z,3.00
2022-12-01T13:52:50.714Z,3.00
2022-12-01T13:58:24.343Z,3.10
2022-12-01T14:03:42.089Z,3.20
2022-12-01T14:08:57.892Z,3.10
2022-12-01T14:14:11.758Z,3.10
2022-12-01T14:19:29.583Z,3.10
2022-12-01T14:24:36.451Z,3.10
2022-12-01T14:29:43.344Z,3.00
2022-12-01T14:34:47.603Z,2.90
2022-12-01T14:39:59.377Z,2.90
2022-12-01T14:45:06.638Z,2.90
2022-12-01T14:50:17.854Z,2.90
2022-12-01T14:55:27.335Z,2.90
2022-12-01T15:00:36.415Z,2.90
2022-12-01T15:05:47.891Z,2.80
2022-12-01T15:10:53.686Z,2.80
2022-12-01T15:16:02.519Z,2.80
2022-12-01T15:21:12.136Z,2.80
2022-12-01T15:26:20.082Z,2.80
2022-12-01T15:31:32.109Z,2.80
2022-12-01T15:36:45.102Z,2.80
2022-12-01T15:41:54.208Z,2.80
2022-12-01T15:47:23.756Z,2.80
2022-12-01T15:52:27.388Z,2.80
2022-12-01T15:57:33.410Z,2.80
2022-12-01T16:02:39.540Z,2.80
2022-12-01T16:08:12.609Z,2.70
2022-12-01T16:13:45.493Z,2.70
2022-12-01T16:18:56.499Z,2.70
2022-12-01T16:24:08.389Z,2.70
2022-12-01T16:29:21.161Z,2.70
2022-12-01T16:34:45.437Z,2.70
2022-12-01T16:39:54.476Z,2.70
2022-12-01T16:45:07.563Z,2.70
2022-12-01T16:50:30.398Z,2.60
2022-12-01T16:55:39.199Z,2.60
2022-12-01T17:00:42.912Z,2.60
2022-12-01T17:05:50.089Z,2.60
2022-12-01T17:10:54.241Z,2.60
2022-12-01T17:15:57.734Z,2.60
2022-12-01T17:21:04.842Z,2.60
2022-12-01T17:26:21.400Z,2.60
2022-12-01T17:31:28.131Z,2.60
2022-12-01T17:36:39.874Z,2.60
2022-12-01T17:41:43.467Z,2.60
2022-12-01T17:46:52.930Z,2.60
2022-12-01T17:52:03.966Z,2.60
2022-12-01T17:57:08.729Z,2.60
2022-12-01T18:02:15.940Z,2.60
2022-12-01T18:07:21.847Z,2.50
2022-12-01T18:12:30.962Z,2.60
2022-12-01T18:17:42.528Z,2.50
2022-12-01T18:22:47.759Z,2.50
2022-12-01T18:27:59.253Z,2.60
2022-12-01T18:33:05.257Z,2.60
2022-12-01T18:38:10.222Z,2.60
2022-12-01T18:43:13.587Z,2.60
2022-12-01T18:48:16.948Z,2.60
2022-12-01T18:53:21.915Z,2.60
2022-12-01T18:58:27.340Z,2.60
2022-12-01T19:03:32.228Z,2.70
2022-12-01T19:08:36.967Z,2.60
2022-12-01T19:13:40.318Z,2.60
2022-12-01T19:18:46.160Z,2.60
2022-12-01T19:23:51.280Z,2.60
2022-12-01T19:29:03.756Z,2.60
2022-12-01T19:34:14.320Z,2.60
2022-12-01T19:39:25.314Z,2.60
2022-12-01T19:44:36.808Z,2.60
2022-12-01T19:49:46.483Z,2.60
2022-12-01T19:54:51.627Z,2.60
2022-12-01T19:59:55.330Z,2.70
2022-12-01T20:05:01.222Z,2.70
2022-12-01T20:10:14.182Z,2.70
2022-12-01T20:15:24.016Z,2.70
2022-12-01T20:20:31.218Z,2.60
2022-12-01T20:25:38.232Z,2.70
2022-12-01T20:30:42.163Z,2.60
2022-12-01T20:35:47.910Z,2.70
2022-12-01T20:41:02.097Z,2.70
2022-12-01T20:46:06.768Z,2.70
2022-12-01T20:51:12.894Z,2.70
2022-12-01T20:56:20.505Z,2.70
2022-12-01T21:01:24.442Z,2.80
2022-12-01T21:06:29.193Z,2.80
2022-12-01T21:11:54.246Z,2.80
2022-12-01T21:17:10.886Z,2.80
2022-12-01T21:22:15.017Z,2.80
2022-12-01T21:27:20.076Z,2.80
2022-12-01T21:32:31.494Z,2.80
2022-12-01T21:37:38.471Z,2.80
2022-12-01T21:42:45.449Z,2.80
2022-12-01T21:47:56.331Z,2.80
2022-12-01T21:58:35.396Z,2.80
2022-12-01T22:03:44.890Z,2.80
2022-12-01T22:08:53.489Z,2.80
2022-12-01T22:14:10.773Z,2.80
2022-12-01T22:19:30.093Z,2.90
2022-12-01T22:24:41.478Z,2.90
2022-12-01T22:29:48.746Z,2.90
2022-12-01T22:34:55.208Z,2.90
2022-12-01T22:39:58.823Z,2.90
2022-12-01T22:45:16.008Z,2.90
2022-12-01T22:50:30.025Z,2.90
2022-12-01T22:55:41.469Z,3.00
2022-12-01T23:00:46.296Z,3.00
2022-12-01T23:05:54.783Z,3.00
2022-12-01T23:10:59.738Z,3.00
2022-12-01T23:16:07.055Z,3.10
2022-12-01T23:21:10.646Z,3.10
2022-12-01T23:26:14.171Z,3.10
2022-12-01T23:31:26.175Z,3.10
2022-12-01T23:36:34.112Z,3.10
2022-12-01T23:41:39.099Z,3.10
2022-12-01T23:46:44.187Z,3.10
2022-12-01T23:51:53.637Z,3.10
2022-12-01T23:57:00.812Z,3.10
